createdAt,value
2022-10-17T05:56:37.469Z,85.04
2022-10-17T05:59:06.504Z,86.61
2022-10-17T06:01:35.427Z,85.79
2022-10-17T06:04:03.260Z,85.89
2022-10-17T06:06:31.591Z,85.32
2022-10-17T06:08:59.424Z,85.23
2022-10-17T06:11:29.125Z,84.76
2022-10-17T06:13:56.808Z,84.06
2022-10-17T06:16:24.691Z,83.45
2022-10-17T06:18:52.464Z,83.19
2022-10-17T06:21:23.718Z,82.87
2022-10-17T06:23:52.257Z,82.56
2022-10-17T06:26:20.475Z,82.52
2022-10-17T06:28:48.992Z,81.92
2022-10-17T06:31:17.825Z,81.78
2022-10-17T06:33:49.309Z,81.13
2022-10-17T06:36:16.973Z,80.63
2022-10-17T06:38:44.961Z,80.00
2022-10-17T06:41:15.753Z,79.37
2022-10-17T06:43:46.374Z,79.34
2022-10-17T06:46:26.742Z,79.28
2022-10-17T06:48:54.261Z,79.25
2022-10-17T06:51:22.663Z,79.28
2022-10-17T06:53:50.314Z,78.92
2022-10-17T06:56:23.943Z,77.77
2022-10-17T06:58:52.916Z,77.80
2022-10-17T07:01:22.453Z,76.95
2022-10-17T07:03:50.867Z,76.48
2022-10-17T07:06:19.109Z,76.94
2022-10-17T07:08:46.991Z,75.99
2022-10-17T07:11:18.027Z,75.50
2022-10-17T07:13:45.570Z,75.08
2022-10-17T07:16:14.210Z,74.49
2022-10-17T07:18:42.779Z,73.74
2022-10-17T07:21:10.385Z,73.09
2022-10-17T07:23:39.816Z,73.18
2022-10-17T07:26:10.696Z,72.22
2022-10-17T07:28:41.289Z,72.23
2022-10-17T07:31:16.714Z,71.82
2022-10-17T07:36:18.236Z,70.21
2022-10-17T07:38:45.822Z,68.87
2022-10-17T07:41:17.753Z,68.90
2022-10-17T07:43:49.216Z,68.58
2022-10-17T07:46:17.369Z,68.18
2022-10-17T07:48:45.264Z,68.55
2022-10-17T07:51:13.101Z,67.64
2022-10-17T07:53:42.751Z,66.04
2022-10-17T07:56:12.979Z,65.72
2022-10-17T07:58:40.404Z,65.41
2022-10-17T08:01:14.749Z,65.30
2022-10-17T08:03:44.895Z,64.93
2022-10-17T08:06:12.828Z,63.34
2022-10-17T08:08:40.840Z,63.63
2022-10-17T08:11:11.169Z,63.40
2022-10-17T08:13:40.168Z,62.49
2022-10-17T08:16:11.050Z,62.62
2022-10-17T08:18:40.273Z,61.87
2022-10-17T08:21:09.222Z,61.67
2022-10-17T08:23:37.111Z,61.54
2022-10-17T08:26:10.287Z,61.55
2022-10-17T08:28:39.996Z,61.02
2022-10-17T08:31:13.990Z,60.95
2022-10-17T08:33:42.523Z,60.44
2022-10-17T08:36:14.739Z,60.52
2022-10-17T08:38:43.660Z,60.69
2022-10-17T08:41:39.613Z,60.85
2022-10-17T08:44:44.917Z,59.56
2022-10-17T08:47:29.543Z,58.68
2022-10-17T08:50:02.276Z,59.15
2022-10-17T08:52:40.148Z,58.94
2022-10-17T08:55:17.168Z,59.19
2022-10-17T08:57:44.787Z,57.52
2022-10-17T09:00:19.820Z,56.81
2022-10-17T09:03:15.245Z,56.71
2022-10-17T09:05:52.234Z,56.99
2022-10-17T09:08:49.935Z,56.56
2022-10-17T09:11:34.036Z,55.96
2022-10-17T09:14:16.828Z,55.82
2022-10-17T09:17:42.804Z,55.92
2022-10-17T09:20:16.249Z,55.66
2022-10-17T09:25:28.347Z,54.86
2022-10-17T09:28:14.184Z,54.63
2022-10-17T09:30:47.735Z,54.61
2022-10-17T09:33:35.467Z,54.31
2022-10-17T09:36:22.788Z,54.50
2022-10-17T09:38:58.330Z,52.50
2022-10-17T09:41:51.539Z,51.60
2022-10-17T09:44:23.742Z,50.98
2022-10-17T09:47:05.193Z,50.36
2022-10-17T09:49:36.301Z,50.47
2022-10-17T09:52:06.354Z,50.24
2022-10-17T09:54:46.839Z,50.49
2022-10-17T09:57:16.179Z,49.59
2022-10-17T09:59:46.842Z,48.85
2022-10-17T10:02:20.845Z,49.57
2022-10-17T10:05:03.609Z,45.58
2022-10-17T10:07:35.739Z,46.01
2022-10-17T10:10:06.720Z,45.71
2022-10-17T10:12:39.442Z,46.64
2022-10-17T10:15:37.844Z,45.72
2022-10-17T10:18:25.215Z,46.73
2022-10-17T10:21:03.516Z,46.36
2022-10-17T10:23:30.972Z,45.74
2022-10-17T10:26:02.844Z,45.69
2022-10-17T10:28:39.986Z,45.27
2022-10-17T10:31:09.793Z,44.68
2022-10-17T10:33:42.991Z,45.13
2022-10-17T10:36:12.088Z,45.51
2022-10-17T10:38:42.504Z,45.22
2022-10-17T10:41:11.516Z,44.81
2022-10-17T10:43:45.920Z,45.31
2022-10-17T10:46:20.129Z,45.10
2022-10-17T10:48:58.549Z,45.48
2022-10-17T10:51:38.315Z,45.15
2022-10-17T10:54:29.999Z,45.24
2022-10-17T10:57:00.669Z,44.16
2022-10-17T10:59:39.583Z,44.69
2022-10-17T11:02:33.440Z,44.50
2022-10-17T11:05:18.627Z,44.12
2022-10-17T11:07:49.545Z,43.10
2022-10-17T11:10:55.988Z,42.89
2022-10-17T11:13:29.029Z,43.63
2022-10-17T11:16:06.599Z,43.62
2022-10-17T11:18:42.115Z,44.09
2022-10-17T11:21:17.315Z,44.03
2022-10-17T11:23:48.929Z,43.77
2022-10-17T11:26:26.938Z,43.88
2022-10-17T11:29:01.444Z,44.24
2022-10-17T11:31:35.728Z,44.09
2022-10-17T11:34:14.933Z,43.19
2022-10-17T11:36:44.330Z,43.22
2022-10-17T11:39:29.119Z,44.44
2022-10-17T11:42:06.619Z,43.53
2022-10-17T11:44:38.960Z,43.49
2022-10-17T11:47:43.955Z,43.43
2022-10-17T11:53:11.950Z,43.48
2022-10-17T11:55:41.921Z,42.87
2022-10-17T11:58:17.346Z,42.23
2022-10-17T12:01:12.932Z,42.78
2022-10-17T12:03:51.625Z,42.74
2022-10-17T12:06:40.924Z,43.04
2022-10-17T12:09:20.869Z,42.83
2022-10-17T12:11:59.057Z,42.06
2022-10-17T12:14:42.057Z,42.67
2022-10-17T12:17:34.772Z,42.87
2022-10-17T12:20:21.693Z,42.68
2022-10-17T12:22:55.109Z,42.58
2022-10-17T12:25:31.688Z,43.19
2022-10-17T12:28:07.283Z,43.37
2022-10-17T12:30:35.105Z,42.97
2022-10-17T12:33:12.037Z,42.23
2022-10-17T12:35:39.895Z,43.36
2022-10-17T12:38:27.681Z,43.12
2022-10-17T12:40:57.635Z,43.32
2022-10-17T12:43:28.102Z,43.20
2022-10-17T12:45:57.964Z,42.76
2022-10-17T12:48:34.452Z,43.41
2022-10-17T12:54:02.104Z,44.13
2022-10-17T12:56:41.193Z,43.91
2022-10-17T12:59:13.320Z,43.94
2022-10-17T13:01:46.338Z,43.41
2022-10-17T13:04:15.136Z,43.87
2022-10-17T13:06:48.829Z,43.86
2022-10-17T13:09:33.459Z,44.41
2022-10-17T13:12:04.561Z,44.91
2022-10-17T13:14:34.051Z,44.78
2022-10-17T13:17:05.976Z,45.39
2022-10-17T13:19:45.776Z,45.69
2022-10-17T13:22:17.940Z,45.67
2022-10-17T13:24:46.660Z,45.87
2022-10-17T13:27:29.463Z,46.34
2022-10-17T13:30:00.744Z,46.87
2022-10-17T13:32:37.553Z,45.82
2022-10-17T13:35:11.979Z,46.55
2022-10-17T13:37:44.536Z,45.20
2022-10-17T13:40:40.758Z,44.78
2022-10-17T13:43:19.497Z,44.53
2022-10-17T13:45:51.488Z,45.04
2022-10-17T13:48:30.673Z,45.16
2022-10-17T13:51:03.034Z,45.83
2022-10-17T13:53:39.692Z,44.91
2022-10-17T13:56:32.940Z,45.19
2022-10-17T13:59:27.613Z,45.76
2022-10-17T14:01:57.076Z,46.17
2022-10-17T14:04:25.282Z,46.13
2022-10-17T14:06:52.845Z,46.26
2022-10-17T14:09:29.904Z,46.40
2022-10-17T14:12:19.394Z,46.56
2022-10-17T14:15:13.098Z,46.82
2022-10-17T14:17:39.434Z,46.64
2022-10-17T14:20:48.174Z,47.32
2022-10-17T14:23:21.316Z,46.98
2022-10-17T14:25:46.780Z,47.48
2022-10-17T14:28:16.866Z,47.92
2022-10-17T14:31:02.438Z,47.59
2022-10-17T14:33:33.359Z,48.10
2022-10-17T14:36:03.997Z,48.19
2022-10-17T14:38:32.355Z,48.52
2022-10-17T14:41:30.557Z,48.37
2022-10-17T14:43:59.672Z,48.30
2022-10-17T14:46:27.936Z,48.24
2022-10-17T14:49:03.388Z,48.60
2022-10-17T14:51:40.004Z,48.81
2022-10-17T14:54:25.932Z,49.08
2022-10-17T14:56:54.958Z,49.35
2022-10-17T14:59:52.130Z,49.61
2022-10-17T15:02:13.415Z,50.47
2022-10-17T15:04:41.533Z,50.59
2022-10-17T15:07:16.505Z,50.57
2022-10-17T15:09:48.816Z,51.04
2022-10-17T15:12:28.322Z,51.26
2022-10-17T15:14:56.165Z,51.51
2022-10-17T15:17:30.119Z,52.23
2022-10-17T15:19:58.246Z,52.66
2022-10-17T15:22:25.832Z,52.81
2022-10-17T15:24:53.272Z,53.11
2022-10-17T15:27:23.521Z,53.04
2022-10-17T15:29:51.728Z,53.26
2022-10-17T15:32:20.174Z,53.44
2022-10-17T15:34:49.123Z,53.68
2022-10-17T15:37:23.211Z,53.76
2022-10-17T15:39:55.134Z,53.90
2022-10-17T15:42:27.843Z,54.08
2022-10-17T15:44:57.714Z,54.31
2022-10-17T15:47:33.637Z,54.66
2022-10-17T15:50:03.782Z,54.86
2022-10-17T15:52:31.444Z,54.98
2022-10-17T15:55:00.997Z,55.18
2022-10-17T15:57:35.991Z,55.26
2022-10-17T16:00:07.097Z,55.95
2022-10-17T16:02:36.766Z,55.92
2022-10-17T16:05:14.909Z,56.48
2022-10-17T16:07:46.110Z,56.90
2022-10-17T16:10:15.353Z,56.93
2022-10-17T16:12:42.913Z,57.39
2022-10-17T16:15:16.191Z,57.25
2022-10-17T16:17:44.340Z,57.49
2022-10-17T16:20:12.978Z,58.14
2022-10-17T16:22:43.454Z,58.48
2022-10-17T16:25:21.391Z,58.76
2022-10-17T16:27:51.164Z,58.99
2022-10-17T16:30:19.770Z,59.43
2022-10-17T16:32:47.649Z,60.58
2022-10-17T16:35:18.837Z,60.56
2022-10-17T16:37:47.501Z,61.60
2022-10-17T16:40:15.840Z,61.50
2022-10-17T16:42:43.572Z,61.52
2022-10-17T16:45:22.888Z,61.68
2022-10-17T16:47:50.787Z,62.83
2022-10-17T16:50:19.863Z,63.78
2022-10-17T16:52:47.716Z,63.68
2022-10-17T16:55:18.663Z,64.70
2022-10-17T16:57:48.826Z,65.35
2022-10-17T17:00:17.907Z,65.83
2022-10-17T17:02:47.819Z,66.33
2022-10-17T17:05:15.686Z,66.44
2022-10-17T17:07:43.048Z,67.07
2022-10-17T17:10:10.833Z,67.43
2022-10-17T17:12:38.539Z,67.86
2022-10-17T17:15:06.404Z,68.56
2022-10-17T17:17:49.557Z,69.30
2022-10-17T17:20:20.283Z,70.30
2022-10-17T17:22:50.735Z,71.62
2022-10-17T17:25:18.107Z,71.78
2022-10-17T17:27:45.651Z,72.62
2022-10-17T17:30:14.190Z,72.00
2022-10-17T17:32:41.661Z,71.16
2022-10-17T17:35:09.558Z,70.72
2022-10-17T17:37:37.417Z,71.89
2022-10-17T17:40:07.252Z,71.32
2022-10-17T17:42:34.726Z,70.99
2022-10-17T17:45:03.164Z,70.92
2022-10-17T17:47:31.152Z,70.77
2022-10-17T17:49:58.808Z,70.44
2022-10-17T17:52:26.449Z,70.78
2022-10-17T17:54:53.868Z,71.17
2022-10-17T17:57:21.547Z,71.59
2022-10-17T17:59:50.088Z,71.66
2022-10-17T18:02:17.534Z,71.87
2022-10-17T18:04:45.247Z,71.74
2022-10-17T18:07:12.861Z,72.40
2022-10-17T18:09:40.394Z,72.82
2022-10-17T18:12:08.086Z,73.56
2022-10-17T18:14:35.507Z,74.54
2022-10-17T18:17:02.858Z,75.08
2022-10-17T18:19:30.654Z,75.61
2022-10-17T18:21:58.668Z,76.59
2022-10-17T18:24:27.382Z,77.29
2022-10-17T18:26:59.622Z,78.07
2022-10-17T18:29:27.742Z,78.88
2022-10-17T18:31:55.748Z,79.00
2022-10-17T18:34:23.204Z,79.41
2022-10-17T18:36:52.776Z,79.81
2022-10-17T18:39:20.621Z,80.14
2022-10-17T18:41:48.078Z,80.52
2022-10-17T18:44:16.825Z,81.20
2022-10-17T18:49:16.040Z,82.10
2022-10-17T18:51:43.916Z,82.17
2022-10-17T18:54:17.231Z,83.18
2022-10-17T18:56:45.309Z,82.46
2022-10-17T18:59:12.768Z,81.66
2022-10-17T19:01:40.260Z,82.78
2022-10-17T19:04:07.993Z,82.75
2022-10-17T19:06:35.609Z,83.07
2022-10-17T19:09:06.730Z,82.43
2022-10-17T19:11:36.308Z,82.33
2022-10-17T19:14:07.979Z,83.24
2022-10-17T19:16:37.194Z,83.41
2022-10-17T19:19:16.777Z,83.33
2022-10-17T19:21:44.777Z,84.60
2022-10-17T19:24:15.635Z,84.91
2022-10-17T19:26:44.320Z,85.04
2022-10-17T19:29:16.906Z,85.70
2022-10-17T19:31:45.197Z,85.35
2022-10-17T19:34:14.029Z,85.50
2022-10-17T19:36:42.164Z,85.35
2022-10-17T19:39:15.632Z,85.39
2022-10-17T19:41:45.280Z,85.35
2022-10-17T19:44:13.895Z,84.92
2022-10-17T19:46:44.290Z,85.11
2022-10-17T19:49:13.045Z,86.00
2022-10-17T19:51:40.484Z,86.31
2022-10-17T19:54:07.867Z,86.29
2022-10-17T19:56:38.852Z,86.75
2022-10-17T19:59:07.496Z,86.82
2022-10-17T20:01:38.900Z,86.40
2022-10-17T20:04:08.602Z,86.66
2022-10-17T20:06:36.361Z,86.68
2022-10-17T20:09:05.172Z,86.61
2022-10-17T20:11:32.953Z,87.06
2022-10-17T20:14:01.827Z,86.87
2022-10-17T20:16:32.175Z,86.86
2022-10-17T20:19:06.874Z,87.01
2022-10-17T20:21:36.535Z,87.92
2022-10-17T20:24:07.373Z,87.11
2022-10-17T20:26:39.406Z,86.77
2022-10-17T20:29:19.697Z,88.42
2022-10-17T20:31:47.972Z,89.09
2022-10-17T20:34:17.826Z,89.33
2022-10-17T20:36:45.975Z,89.32
2022-10-17T20:39:15.055Z,89.04
2022-10-17T20:41:43.679Z,89.79
2022-10-17T20:44:11.619Z,89.14
2022-10-17T20:46:44.736Z,88.89
2022-10-17T20:49:21.162Z,89.51
2022-10-17T20:51:50.202Z,89.57
2022-10-17T20:54:17.657Z,89.60
2022-10-17T20:56:45.319Z,89.80
2022-10-17T20:59:14.960Z,89.52
2022-10-17T21:01:43.616Z,89.97
2022-10-17T21:04:40.370Z,89.38
2022-10-17T21:06:59.766Z,89.47
2022-10-17T21:09:27.607Z,89.84
2022-10-17T21:11:55.958Z,89.80
2022-10-17T21:14:33.668Z,89.47
2022-10-17T21:17:04.951Z,89.60
2022-10-17T21:19:33.564Z,89.36
2022-10-17T21:22:01.654Z,89.63
2022-10-17T21:24:29.051Z,89.06
2022-10-17T21:26:57.525Z,89.21
2022-10-17T21:29:25.288Z,89.64
2022-10-17T21:31:52.876Z,89.52
2022-10-17T21:34:22.284Z,89.56
2022-10-17T21:36:50.057Z,90.13
2022-10-17T21:39:17.555Z,90.51
2022-10-17T21:41:44.968Z,90.21
2022-10-17T21:44:18.453Z,90.13
2022-10-17T21:46:46.727Z,90.86
2022-10-17T21:49:17.201Z,92.68
2022-10-17T21:51:45.260Z,91.47
2022-10-17T21:54:12.694Z,91.71
2022-10-17T21:56:40.851Z,90.42
2022-10-17T21:59:08.747Z,90.80
2022-10-17T22:01:41.410Z,90.94
2022-10-17T22:04:13.061Z,90.44
2022-10-17T22:06:42.411Z,90.43
2022-10-17T22:09:20.091Z,90.43
2022-10-17T22:11:50.290Z,90.86
2022-10-17T22:14:20.062Z,90.30
2022-10-17T22:16:48.549Z,90.76
2022-10-17T22:19:18.857Z,90.83
2022-10-17T22:21:46.704Z,90.69
2022-10-17T22:24:15.982Z,90.55
2022-10-17T22:26:44.579Z,90.06
2022-10-17T22:29:12.991Z,89.25
2022-10-17T22:31:40.792Z,89.20
2022-10-17T22:34:10.228Z,89.88
2022-10-17T22:36:37.868Z,90.59
2022-10-17T22:39:05.440Z,91.29
2022-10-17T22:41:32.846Z,91.30
2022-10-17T22:44:00.477Z,91.36
2022-10-17T22:46:28.180Z,91.37
2022-10-17T22:48:55.864Z,91.04
2022-10-17T22:53:56.241Z,91.87
2022-10-17T22:56:23.950Z,92.48
2022-10-17T22:58:52.074Z,92.01
2022-10-17T23:01:22.212Z,91.95
2022-10-17T23:03:51.464Z,92.69
2022-10-17T23:06:19.986Z,92.38
2022-10-17T23:08:48.081Z,93.94
2022-10-17T23:11:16.334Z,93.39
2022-10-17T23:13:43.945Z,93.79
2022-10-17T23:16:11.525Z,93.75
2022-10-17T23:18:39.482Z,94.69
2022-10-17T23:21:08.199Z,94.80
2022-10-17T23:23:36.280Z,93.80
2022-10-17T23:26:06.665Z,92.62
2022-10-17T23:28:35.635Z,92.41
2022-10-17T23:31:16.707Z,92.41
2022-10-17T23:33:45.748Z,93.52
2022-10-17T23:36:20.160Z,93.47
2022-10-17T23:38:48.417Z,93.87
2022-10-17T23:41:17.090Z,93.36
2022-10-17T23:43:44.736Z,92.72
2022-10-17T23:46:12.519Z,92.49
2022-10-17T23:48:41.219Z,92.37
2022-10-17T23:51:10.005Z,91.99
2022-10-17T23:53:38.301Z,92.19
2022-10-17T23:56:07.800Z,92.46
2022-10-17T23:58:36.169Z,92.18
